M\v Black Rhino — V7TR7 — position and weather

sailwx.info

Track history (hours):
 
Tides and Currents Weather Stations Pressure Air Temp Water Temp Dewpoint Dewpoint Depression Visibility Wind Speed Wind Dir Waves Ship Positions

M\v Black Rhino

Last reported at 2017-May-07 13:03 UTC. Time now 2017-May-24 15:46 UTC.
Position S 30°26' E 030°49'.
Warning: this ship's position is 17 days out of date.

Length 101 m; draft 4.4 m.

Type: Cargo ship. MMSI: 538090408.

Date/timePositionNaut miles runAvg speedWind from/ knotsBaromVisibWave heightAir tempDewpointWater temp
2017-May-07 13:03S 30°26' E 030°49'110.5
2017-May-07 12:56S 30°25' E 030°50'510.5
2017-May-07 12:30S 30°21' E 030°52'510.1
2017-May-07 12:01S 30°17' E 030°55'5 9.7
2017-May-07 11:30S 30°12' E 030°57'5 9.3
2017-May-07 11:01S 30°08' E 030°60'5 9.3
2017-May-07 10:30S 30°04' E 031°02'5 9.3
2017-May-07 10:00S 29°60' E 031°04'5 9.5
2017-May-07 09:30S 29°55' E 031°06'5 9.5
2017-May-07 09:00S 29°51' E 031°05'3 4.9
2017-May-07 08:27S 29°52' E 031°02'0 0.4
2017-May-07 08:00S 29°53' E 031°02'0 0.0
2017-May-07 07:30S 29°53' E 031°02'0 0.0
2017-May-07 07:00S 29°53' E 031°02'0 0.0
2017-May-07 06:27S 29°53' E 031°02'0 0.0
2017-May-07 06:00S 29°53' E 031°02'0 0.0
2017-May-07 05:30S 29°53' E 031°02'0 0.0
2017-May-07 05:00S 29°53' E 031°02'0 0.0
2017-May-07 04:30S 29°53' E 031°02'0 0.0
2017-May-07 04:00S 29°53' E 031°02'0 0.0
2017-May-07 03:30S 29°53' E 031°02'0 0.0
2017-May-07 03:00S 29°53' E 031°02'0 0.0
2017-May-07 02:27S 29°53' E 031°02'0 0.0
2017-May-07 02:00S 29°53' E 031°02'0 0.0
2017-May-07 01:27S 29°53' E 031°02'0 0.0
2017-May-07 00:57S 29°53' E 031°02'0 0.0
2017-May-07 00:27S 29°53' E 031°02'0 0.0
2017-May-06 23:57S 29°53' E 031°02'0 0.0
2017-May-06 23:30S 29°53' E 031°02'0 0.0
2017-May-06 23:00S 29°53' E 031°02'0 0.0
2017-May-06 22:30S 29°53' E 031°02'0 0.0
2017-May-06 22:00S 29°53' E 031°02'1 2.1
2017-May-06 21:26S 29°52' E 031°01'0 0.8
2017-May-06 20:59S 29°53' E 031°00'0 0.0
2017-May-06 20:29S 29°53' E 031°00'0 0.0
2017-May-06 19:59S 29°53' E 031°00'0 0.0
2017-May-06 19:29S 29°53' E 031°00'0 0.0
2017-May-06 18:59S 29°53' E 031°00'0 0.0
2017-May-06 18:28S 29°53' E 031°00'0 0.0
2017-May-06 17:58S 29°53' E 031°00'0 0.0
2017-May-06 17:30S 29°53' E 031°00'0 0.0
2017-May-06 17:00S 29°53' E 031°00'0 0.0
2017-May-06 16:30S 29°53' E 031°00'0 0.0
2017-May-06 16:00S 29°53' E 031°00'0 0.0
2017-May-06 15:30S 29°53' E 031°00'0 0.0
2017-May-06 15:00S 29°53' E 031°00'0 0.0
2017-May-06 14:00S 29°53' E 031°00'0 0.0
2017-May-06 13:30S 29°53' E 031°00'0 0.0
2017-May-06 13:00S 29°53' E 031°00'0 0.0
2017-May-06 12:30S 29°53' E 031°00'0 0.0
2017-May-06 12:00S 29°53' E 031°00'0 0.0
2017-May-06 11:30S 29°53' E 031°00'0 0.0
2017-May-06 11:00S 29°53' E 031°00'0 0.0
2017-May-06 10:27S 29°53' E 031°00'0 0.0
2017-May-06 10:00S 29°53' E 031°00'0 0.0
2017-May-06 09:30S 29°53' E 031°00'0 0.0
2017-May-06 09:00S 29°53' E 031°00'0 0.0
2017-May-06 08:30S 29°53' E 031°00'0 0.0
2017-May-06 08:00S 29°53' E 031°00'0 0.0
2017-May-06 07:27S 29°53' E 031°00'0 0.0
2017-May-06 07:00S 29°53' E 031°00'0 0.0
2017-May-06 06:30S 29°53' E 031°00'0 0.0
2017-May-06 06:00S 29°53' E 031°00'0 0.0
2017-May-06 05:30S 29°53' E 031°00'0 0.0
2017-May-06 05:00S 29°53' E 031°00'0 0.0
2017-May-06 04:30S 29°53' E 031°00'0 0.0
2017-May-06 04:00S 29°53' E 031°00'0 0.0
2017-May-06 03:30S 29°53' E 031°00'0 0.0
2017-May-06 03:00S 29°53' E 031°00'0 0.0
2017-May-06 02:30S 29°53' E 031°00'0 0.1
2017-May-06 02:00S 29°53' E 031°00'0 0.1
2017-May-06 01:30S 29°53' E 031°00'0 0.0
2017-May-06 01:00S 29°53' E 031°00'0 0.0
2017-May-06 00:27S 29°53' E 031°00'0 0.0
2017-May-06 00:00S 29°53' E 031°00'0 0.0
2017-May-05 23:30S 29°53' E 031°00'0 0.0
2017-May-05 23:00S 29°53' E 031°00'0 0.0
2017-May-05 22:30S 29°53' E 031°00'0 0.0
2017-May-05 22:00S 29°53' E 031°00'0 0.0
2017-May-05 21:30S 29°53' E 031°00'0 0.0
2017-May-05 21:00S 29°53' E 031°00'0 0.0
2017-May-05 20:30S 29°53' E 031°00'0 0.0
2017-May-05 20:00S 29°53' E 031°00'0 0.0
2017-May-05 19:30S 29°53' E 031°00'0 0.0
2017-May-05 18:57S 29°53' E 031°00'0 0.0
2017-May-05 18:27S 29°53' E 031°00'0 0.0
2017-May-05 18:00S 29°53' E 031°00'0 0.0
2017-May-05 17:30S 29°53' E 031°00'0 0.0
2017-May-05 17:00S 29°53' E 031°00'0 0.0
2017-May-05 16:30S 29°53' E 031°00'0 0.0
2017-May-05 16:00S 29°53' E 031°00'0 0.0
2017-May-05 15:30S 29°53' E 031°00'0 0.0
2017-May-05 14:58S 29°53' E 031°00'0 0.0
2017-May-05 13:55S 29°53' E 031°00'0 0.0
2017-May-05 13:28S 29°53' E 031°00'0 0.0
2017-May-05 13:00S 29°53' E 031°00'0 0.0
2017-May-05 12:28S 29°53' E 031°00'0 0.0
2017-May-05 11:52S 29°53' E 031°00'0 0.0
2017-May-05 11:28S 29°53' E 031°00'0 0.0
2017-May-05 10:58S 29°53' E 031°00'0 0.0
2017-May-05 10:28S 29°53' E 031°00'0 0.0
2017-May-05 09:58S 29°53' E 031°00'0 0.0
2017-May-05 09:22S 29°53' E 031°00'0 0.0
2017-May-05 08:58S 29°53' E 031°00'0 0.0
2017-May-05 08:28S 29°53' E 031°00'0 0.0
2017-May-05 07:58S 29°53' E 031°00'0 0.0
2017-May-05 07:30S 29°53' E 031°00'0 0.0
2017-May-05 07:00S 29°53' E 031°00'0 0.0
2017-May-05 06:30S 29°53' E 031°00'0 0.0
2017-May-05 06:00S 29°53' E 031°00'0 0.0
2017-May-05 05:30S 29°53' E 031°00'0 0.0
2017-May-05 05:00S 29°53' E 031°00'0 0.0
2017-May-05 04:30S 29°53' E 031°00'0 0.0
2017-May-05 03:57S 29°53' E 031°00'0 0.0
2017-May-05 03:30S 29°53' E 031°00'0 0.0
2017-May-05 03:00S 29°53' E 031°00'0 0.0
2017-May-05 02:30S 29°53' E 031°00'0 0.0
2017-May-05 01:58S 29°53' E 031°00'0 0.0
2017-May-05 01:28S 29°53' E 031°00'0 0.0
2017-May-05 00:58S 29°53' E 031°00'0 0.0
2017-May-05 00:28S 29°53' E 031°00'0 0.0
2017-May-04 23:58S 29°53' E 031°00'0 0.0
2017-May-04 23:25S 29°53' E 031°00'0 0.0
2017-May-04 22:58S 29°53' E 031°00'0 0.0
2017-May-04 22:28S 29°53' E 031°00'0 0.0
2017-May-04 21:58S 29°53' E 031°00'0 0.0
2017-May-04 21:28S 29°53' E 031°00'0 0.0
2017-May-04 20:58S 29°53' E 031°00'0 0.0
2017-May-04 20:28S 29°53' E 031°00'0 0.0
2017-May-04 19:58S 29°53' E 031°00'0 0.0
2017-May-04 19:28S 29°53' E 031°00'0 0.0
2017-May-04 18:58S 29°53' E 031°00'0 0.0
2017-May-04 18:28S 29°53' E 031°00'0 0.0
2017-May-04 17:58S 29°53' E 031°00'0 0.0
2017-May-04 17:28S 29°53' E 031°00'0 0.0
2017-May-04 16:58S 29°53' E 031°00'0 0.0
2017-May-04 16:28S 29°53' E 031°00'0 0.0
2017-May-04 15:58S 29°53' E 031°00'0 0.0
2017-May-04 15:28S 29°53' E 031°00'0 0.0
2017-May-04 14:58S 29°53' E 031°00'0 0.0
2017-May-04 13:55S 29°53' E 031°00'0 0.0
2017-May-04 13:28S 29°53' E 031°00'0 0.0
2017-May-04 12:55S 29°53' E 031°00'0 0.0
2017-May-04 12:25S 29°53' E 031°00'0 0.0
2017-May-04 11:56S 29°53' E 031°00'2 4.2
2017-May-04 11:30S 29°53' E 031°02'0 0.5
2017-May-04 10:57S 29°52' E 031°03'0 0.0
2017-May-04 10:27S 29°52' E 031°03'0 0.0
2017-May-04 09:57S 29°52' E 031°03'0 0.0
2017-May-04 09:30S 29°52' E 031°03'0 0.0
2017-May-04 08:57S 29°52' E 031°03'0 0.0
2017-May-04 08:30S 29°52' E 031°03'0 0.0
2017-May-04 08:00S 29°52' E 031°03'0 0.0
2017-May-04 07:27S 29°52' E 031°03'0 0.0
2017-May-04 07:00S 29°52' E 031°03'0 0.0
2017-May-04 06:27S 29°52' E 031°03'0 0.0
2017-May-04 05:57S 29°52' E 031°03'0 0.0
2017-May-04 05:24S 29°52' E 031°03'0 0.0
2017-May-04 05:00S 29°52' E 031°03'0 0.0
2017-May-04 04:30S 29°52' E 031°03'0 0.0
2017-May-04 04:00S 29°52' E 031°03'0 0.0
2017-May-04 03:27S 29°52' E 031°03'0 0.0
2017-May-04 03:00S 29°52' E 031°03'0 0.0
2017-May-04 02:30S 29°52' E 031°03'0 0.0
2017-May-04 02:00S 29°52' E 031°03'0 0.0
2017-May-04 01:30S 29°52' E 031°03'0 0.0
2017-May-04 00:57S 29°52' E 031°03'0 0.0
2017-May-04 00:30S 29°52' E 031°03'0 0.0
2017-May-04 00:00S 29°52' E 031°03'0 0.0
2017-May-03 23:30S 29°52' E 031°03'0 0.0
2017-May-03 23:00S 29°52' E 031°03'0 0.0
2017-May-03 22:30S 29°52' E 031°03'0 0.0
2017-May-03 22:00S 29°52' E 031°03'0 0.0
2017-May-03 21:30S 29°52' E 031°03'0 0.0
2017-May-03 21:00S 29°52' E 031°03'0 0.0
2017-May-03 20:30S 29°52' E 031°03'0 0.0
2017-May-03 20:00S 29°52' E 031°03'0 0.0
2017-May-03 19:30S 29°52' E 031°03'0 0.0
2017-May-03 19:00S 29°52' E 031°03'0 0.0
2017-May-03 18:30S 29°52' E 031°03'0 0.0
2017-May-03 18:00S 29°52' E 031°03'0 0.0
2017-May-03 17:30S 29°52' E 031°03'0 0.0
2017-May-03 17:00S 29°52' E 031°03'0 0.0
2017-May-03 16:30S 29°52' E 031°03'0 0.0
2017-May-03 16:00S 29°52' E 031°03'0 0.0
2017-May-03 15:30S 29°52' E 031°03'0 0.0
2017-May-03 14:57S 29°52' E 031°03'0 0.0
2017-May-03 13:57S 29°52' E 031°03'0 0.0
2017-May-03 13:27S 29°52' E 031°03'0 0.0
2017-May-03 12:51S 29°52' E 031°03'0 0.0
2017-May-03 12:27S 29°52' E 031°03'0 0.0
2017-May-03 12:00S 29°52' E 031°03'0 0.0
2017-May-03 11:27S 29°52' E 031°03'0 0.0
2017-May-03 11:00S 29°52' E 031°03'0 0.0
2017-May-03 10:30S 29°52' E 031°03'0 0.0
2017-May-03 10:00S 29°52' E 031°03'0 0.0
2017-May-03 09:30S 29°52' E 031°03'0 0.0
2017-May-03 09:00S 29°52' E 031°03'1 1.6
2017-May-03 08:30S 29°52' E 031°04'3 6.3
2017-May-03 08:00S 29°50' E 031°06'2 5.0
2017-May-03 07:30S 29°50' E 031°09'3 6.5
2017-May-03 07:00S 29°51' E 031°13'1 2.6
2017-May-03 06:30S 29°49' E 031°12'2 3.3
2017-May-03 06:00S 29°48' E 031°11'4 8.8
2017-May-03 05:30S 29°44' E 031°14'612.7
2017-May-03 05:00S 29°40' E 031°20'612.7
2017-May-03 04:30S 29°36' E 031°25'612.9
2017-May-03 04:00S 29°32' E 031°31'612.7
2017-May-03 03:30S 29°28' E 031°37'612.8
2017-May-03 03:00S 29°24' E 031°42'713.1
2017-May-03 02:30S 29°20' E 031°48'713.1
2017-May-03 02:00S 29°16' E 031°54'714.4
2017-May-03 01:30S 29°11' E 032°01'814.9
2017-May-03 00:56S 29°06' E 032°08'715.2
2017-May-03 00:30S 29°02' E 032°14'815.3
2017-May-03 00:00S 28°57' E 032°21'815.0
2017-May-02 23:27S 28°51' E 032°27'  
2017-Apr-30 05:52S 28°59' E 032°19'3 8.6
2017-Apr-30 05:31S 29°01' E 032°16'5 8.6
2017-Apr-30 04:58S 29°04' E 032°12'4 8.4
2017-Apr-30 04:28S 29°06' E 032°08'7 9.6
2017-Apr-30 03:44S 29°11' E 032°02'312.0
2017-Apr-30 03:28S 29°13' E 031°59'612.5
2017-Apr-30 03:00S 29°16' E 031°53'612.6
2017-Apr-30 02:31S 29°20' E 031°48'612.3
2017-Apr-30 02:00S 29°24' E 031°42'612.3
2017-Apr-30 01:31S 29°28' E 031°37'612.1
2017-Apr-30 01:00S 29°32' E 031°31'611.8
2017-Apr-30 00:30S 29°35' E 031°26'611.8
2017-Apr-30 00:00S 29°39' E 031°21'612.0
2017-Apr-29 23:30S 29°43' E 031°16'612.1
2017-Apr-29 23:00S 29°47' E 031°11'611.3
2017-Apr-29 22:30S 29°50' E 031°05'3 6.0
2017-Apr-29 22:00S 29°52' E 031°03'0 0.0
2017-Apr-29 21:29S 29°52' E 031°03'0 0.0
2017-Apr-29 20:59S 29°52' E 031°03'0 0.0
2017-Apr-29 20:29S 29°52' E 031°03'0 0.0
2017-Apr-29 20:00S 29°52' E 031°03'0 0.0
2017-Apr-29 19:29S 29°52' E 031°03'0 0.0
2017-Apr-29 18:59S 29°52' E 031°03'0 0.0
2017-Apr-29 18:29S 29°52' E 031°03'0 0.0
2017-Apr-29 17:59S 29°52' E 031°03'0 0.0
2017-Apr-29 17:29S 29°52' E 031°03'0 0.0
2017-Apr-29 16:59S 29°52' E 031°03'0 0.0
2017-Apr-29 16:29S 29°52' E 031°03'0 0.0
2017-Apr-29 15:59S 29°52' E 031°03'0 0.0
2017-Apr-29 15:29S 29°52' E 031°03'0 0.0
2017-Apr-29 14:59S 29°52' E 031°03'0 0.0
2017-Apr-29 13:56S 29°52' E 031°03'0 0.0
2017-Apr-29 13:26S 29°52' E 031°03'0 0.0
2017-Apr-29 12:56S 29°52' E 031°03'0 0.0
2017-Apr-29 12:29S 29°52' E 031°03'0 0.0
2017-Apr-29 11:56S 29°52' E 031°03'0 0.0
2017-Apr-29 11:26S 29°52' E 031°03'0 0.0
2017-Apr-29 10:56S 29°52' E 031°03'0 0.0
2017-Apr-29 10:29S 29°52' E 031°03'0 0.0
2017-Apr-29 09:57S 29°52' E 031°03'0 0.0
2017-Apr-29 09:29S 29°52' E 031°03'0 0.0
2017-Apr-29 08:59S 29°52' E 031°03'0 0.2
2017-Apr-29 08:29S 29°52' E 031°03'0 0.0
2017-Apr-29 07:53S 29°52' E 031°03'0 0.0
2017-Apr-29 07:29S 29°52' E 031°03'0 0.0
2017-Apr-29 06:59S 29°52' E 031°03'0 0.0
2017-Apr-29 06:29S 29°52' E 031°03'0 0.0
2017-Apr-29 05:59S 29°52' E 031°03'0 0.0
2017-Apr-29 05:26S 29°52' E 031°03'0 0.0
2017-Apr-29 04:59S 29°52' E 031°03'0 0.0
2017-Apr-29 04:29S 29°52' E 031°03'0 0.0
2017-Apr-29 03:59S 29°52' E 031°03'0 0.0
2017-Apr-29 03:29S 29°52' E 031°03'0 0.0
2017-Apr-29 02:59S 29°52' E 031°03'0 0.0
2017-Apr-29 02:29S 29°52' E 031°03'0 0.0
2017-Apr-29 01:59S 29°52' E 031°03'0 0.0
2017-Apr-29 01:29S 29°52' E 031°03'0 0.0
2017-Apr-29 00:59S 29°52' E 031°03'0 0.0
2017-Apr-29 00:29S 29°52' E 031°03'0 0.0
2017-Apr-28 23:59S 29°52' E 031°03'0 0.0
2017-Apr-28 23:29S 29°52' E 031°03'0 0.0
2017-Apr-28 22:59S 29°52' E 031°03'0 0.0
2017-Apr-28 22:29S 29°52' E 031°03'0 0.0
2017-Apr-28 21:59S 29°52' E 031°03'0 0.0
2017-Apr-28 21:29S 29°52' E 031°03'0 0.0
2017-Apr-28 20:59S 29°52' E 031°03'0 0.0
2017-Apr-28 20:29S 29°52' E 031°03'0 0.0
2017-Apr-28 19:59S 29°52' E 031°03'0 0.0
2017-Apr-28 19:29S 29°52' E 031°03'0 0.0
2017-Apr-28 18:59S 29°52' E 031°03'0 0.0
2017-Apr-28 18:29S 29°52' E 031°03'0 0.0
2017-Apr-28 17:59S 29°52' E 031°03'0 0.0
2017-Apr-28 17:29S 29°52' E 031°03'0 0.0
2017-Apr-28 16:59S 29°52' E 031°03'0 0.0
2017-Apr-28 16:29S 29°52' E 031°03'0 0.0
2017-Apr-28 15:59S 29°52' E 031°03'0 0.0
2017-Apr-28 15:29S 29°52' E 031°03'0 0.0
2017-Apr-28 14:56S 29°52' E 031°03'0 0.0
2017-Apr-28 13:59S 29°52' E 031°03'0 0.0
2017-Apr-28 13:29S 29°52' E 031°03'0 0.0
2017-Apr-28 12:59S 29°52' E 031°03'0 0.0
2017-Apr-28 12:29S 29°52' E 031°03'0 0.0
2017-Apr-28 11:59S 29°52' E 031°03'0 0.0
2017-Apr-28 11:29S 29°52' E 031°03'0 0.0
2017-Apr-28 11:00S 29°52' E 031°03'0 0.0
2017-Apr-28 10:30S 29°52' E 031°03'0 0.0
2017-Apr-28 10:00S 29°52' E 031°03'0 0.0
2017-Apr-28 09:30S 29°52' E 031°03'0 0.0
2017-Apr-28 09:00S 29°52' E 031°03'0 0.0
2017-Apr-28 08:29S 29°52' E 031°03'0 0.0
2017-Apr-28 08:00S 29°52' E 031°03'0 0.0
2017-Apr-28 07:27S 29°52' E 031°03'0 0.0
2017-Apr-28 06:59S 29°52' E 031°03'0 0.0
2017-Apr-28 06:30S 29°52' E 031°03'0 0.0
2017-Apr-28 06:00S 29°52' E 031°03'0 0.0
2017-Apr-28 05:24S 29°52' E 031°03'0 0.0
2017-Apr-28 05:00S 29°52' E 031°03'0 0.0
2017-Apr-28 04:29S 29°52' E 031°03'0 0.0
2017-Apr-28 04:00S 29°52' E 031°03'0 0.0
2017-Apr-28 03:29S 29°52' E 031°03'0 0.0
2017-Apr-28 03:00S 29°52' E 031°03'0 0.0
2017-Apr-28 02:30S 29°52' E 031°03'0 0.0
2017-Apr-28 02:00S 29°52' E 031°03'0 0.0
2017-Apr-28 01:30S 29°52' E 031°03'0 0.0
2017-Apr-28 01:00S 29°52' E 031°03'0 0.0
2017-Apr-28 00:30S 29°52' E 031°03'0 0.0
2017-Apr-28 00:00S 29°52' E 031°03'0 0.0
2017-Apr-27 23:30S 29°52' E 031°03'0 0.0
2017-Apr-27 23:00S 29°52' E 031°03'0 0.0
2017-Apr-27 22:29S 29°52' E 031°03'0 0.0
2017-Apr-27 22:00S 29°52' E 031°03'0 0.0
2017-Apr-27 21:30S 29°52' E 031°03'0 0.0
2017-Apr-27 20:59S 29°52' E 031°03'0 0.0
2017-Apr-27 20:29S 29°52' E 031°03'0 0.0
2017-Apr-27 20:00S 29°52' E 031°03'0 0.0
2017-Apr-27 19:29S 29°52' E 031°03'0 0.0
2017-Apr-27 19:00S 29°52' E 031°03'0 0.0
2017-Apr-27 18:30S 29°52' E 031°03'0 0.0
2017-Apr-27 17:59S 29°52' E 031°03'0 0.0
2017-Apr-27 17:30S 29°52' E 031°03'0 0.0
2017-Apr-27 16:59S 29°52' E 031°03'0 0.0
2017-Apr-27 16:30S 29°52' E 031°03'0 0.0
2017-Apr-27 16:00S 29°52' E 031°03'0 0.0
2017-Apr-27 15:30S 29°52' E 031°03'0 0.0
2017-Apr-27 15:00S 29°52' E 031°03'0 0.0
2017-Apr-27 13:59S 29°52' E 031°03'0 0.0
2017-Apr-27 13:30S 29°52' E 031°03'  
Track history (hours):
 
Tides and Currents Weather Stations Pressure Air Temp Water Temp Dewpoint Dewpoint Depression Visibility Wind Speed Wind Dir Waves Ship Positions

M\v Black Rhino

Last reported at 2017-May-07 13:03 UTC. Time now 2017-May-24 15:46 UTC.
Position S 30°26' E 030°49'.
Warning: this ship's position is 17 days out of date.

Length 101 m; draft 4.4 m.

Type: Cargo ship. MMSI: 538090408.

Date/timePositionNaut miles runAvg speedWind from/ knotsBaromVisibWave heightAir tempDewpointWater temp
2017-May-07 13:03S 30°26' E 030°49'110.5
2017-May-07 12:56S 30°25' E 030°50'510.5
2017-May-07 12:30S 30°21' E 030°52'510.1
2017-May-07 12:01S 30°17' E 030°55'5 9.7
2017-May-07 11:30S 30°12' E 030°57'5 9.3
2017-May-07 11:01S 30°08' E 030°60'5 9.3
2017-May-07 10:30S 30°04' E 031°02'5 9.3
2017-May-07 10:00S 29°60' E 031°04'5 9.5
2017-May-07 09:30S 29°55' E 031°06'5 9.5
2017-May-07 09:00S 29°51' E 031°05'3 4.9
2017-May-07 08:27S 29°52' E 031°02'0 0.4
2017-May-07 08:00S 29°53' E 031°02'0 0.0
2017-May-07 07:30S 29°53' E 031°02'0 0.0
2017-May-07 07:00S 29°53' E 031°02'0 0.0
2017-May-07 06:27S 29°53' E 031°02'0 0.0
2017-May-07 06:00S 29°53' E 031°02'0 0.0
2017-May-07 05:30S 29°53' E 031°02'0 0.0
2017-May-07 05:00S 29°53' E 031°02'0 0.0
2017-May-07 04:30S 29°53' E 031°02'0 0.0
2017-May-07 04:00S 29°53' E 031°02'0 0.0
2017-May-07 03:30S 29°53' E 031°02'0 0.0
2017-May-07 03:00S 29°53' E 031°02'0 0.0
2017-May-07 02:27S 29°53' E 031°02'0 0.0
2017-May-07 02:00S 29°53' E 031°02'0 0.0
2017-May-07 01:27S 29°53' E 031°02'0 0.0
2017-May-07 00:57S 29°53' E 031°02'0 0.0
2017-May-07 00:27S 29°53' E 031°02'0 0.0
2017-May-06 23:57S 29°53' E 031°02'0 0.0
2017-May-06 23:30S 29°53' E 031°02'0 0.0
2017-May-06 23:00S 29°53' E 031°02'0 0.0
2017-May-06 22:30S 29°53' E 031°02'0 0.0
2017-May-06 22:00S 29°53' E 031°02'1 2.1
2017-May-06 21:26S 29°52' E 031°01'0 0.8
2017-May-06 20:59S 29°53' E 031°00'0 0.0
2017-May-06 20:29S 29°53' E 031°00'0 0.0
2017-May-06 19:59S 29°53' E 031°00'0 0.0
2017-May-06 19:29S 29°53' E 031°00'0 0.0
2017-May-06 18:59S 29°53' E 031°00'0 0.0
2017-May-06 18:28S 29°53' E 031°00'0 0.0
2017-May-06 17:58S 29°53' E 031°00'0 0.0
2017-May-06 17:30S 29°53' E 031°00'0 0.0
2017-May-06 17:00S 29°53' E 031°00'0 0.0
2017-May-06 16:30S 29°53' E 031°00'0 0.0
2017-May-06 16:00S 29°53' E 031°00'0 0.0
2017-May-06 15:30S 29°53' E 031°00'0 0.0
2017-May-06 15:00S 29°53' E 031°00'0 0.0
2017-May-06 14:00S 29°53' E 031°00'0 0.0
2017-May-06 13:30S 29°53' E 031°00'0 0.0
2017-May-06 13:00S 29°53' E 031°00'0 0.0
2017-May-06 12:30S 29°53' E 031°00'0 0.0
2017-May-06 12:00S 29°53' E 031°00'0 0.0
2017-May-06 11:30S 29°53' E 031°00'0 0.0
2017-May-06 11:00S 29°53' E 031°00'0 0.0
2017-May-06 10:27S 29°53' E 031°00'0 0.0
2017-May-06 10:00S 29°53' E 031°00'0 0.0
2017-May-06 09:30S 29°53' E 031°00'0 0.0
2017-May-06 09:00S 29°53' E 031°00'0 0.0
2017-May-06 08:30S 29°53' E 031°00'0 0.0
2017-May-06 08:00S 29°53' E 031°00'0 0.0
2017-May-06 07:27S 29°53' E 031°00'0 0.0
2017-May-06 07:00S 29°53' E 031°00'0 0.0
2017-May-06 06:30S 29°53' E 031°00'0 0.0
2017-May-06 06:00S 29°53' E 031°00'0 0.0
2017-May-06 05:30S 29°53' E 031°00'0 0.0
2017-May-06 05:00S 29°53' E 031°00'0 0.0
2017-May-06 04:30S 29°53' E 031°00'0 0.0
2017-May-06 04:00S 29°53' E 031°00'0 0.0
2017-May-06 03:30S 29°53' E 031°00'0 0.0
2017-May-06 03:00S 29°53' E 031°00'0 0.0
2017-May-06 02:30S 29°53' E 031°00'0 0.1
2017-May-06 02:00S 29°53' E 031°00'0 0.1
2017-May-06 01:30S 29°53' E 031°00'0 0.0
2017-May-06 01:00S 29°53' E 031°00'0 0.0
2017-May-06 00:27S 29°53' E 031°00'0 0.0
2017-May-06 00:00S 29°53' E 031°00'0 0.0
2017-May-05 23:30S 29°53' E 031°00'0 0.0
2017-May-05 23:00S 29°53' E 031°00'0 0.0
2017-May-05 22:30S 29°53' E 031°00'0 0.0
2017-May-05 22:00S 29°53' E 031°00'0 0.0
2017-May-05 21:30S 29°53' E 031°00'0 0.0
2017-May-05 21:00S 29°53' E 031°00'0 0.0
2017-May-05 20:30S 29°53' E 031°00'0 0.0
2017-May-05 20:00S 29°53' E 031°00'0 0.0
2017-May-05 19:30S 29°53' E 031°00'0 0.0
2017-May-05 18:57S 29°53' E 031°00'0 0.0
2017-May-05 18:27S 29°53' E 031°00'0 0.0
2017-May-05 18:00S 29°53' E 031°00'0 0.0
2017-May-05 17:30S 29°53' E 031°00'0 0.0
2017-May-05 17:00S 29°53' E 031°00'0 0.0
2017-May-05 16:30S 29°53' E 031°00'0 0.0
2017-May-05 16:00S 29°53' E 031°00'0 0.0
2017-May-05 15:30S 29°53' E 031°00'0 0.0
2017-May-05 14:58S 29°53' E 031°00'0 0.0
2017-May-05 13:55S 29°53' E 031°00'0 0.0
2017-May-05 13:28S 29°53' E 031°00'0 0.0
2017-May-05 13:00S 29°53' E 031°00'0 0.0
2017-May-05 12:28S 29°53' E 031°00'0 0.0
2017-May-05 11:52S 29°53' E 031°00'0 0.0
2017-May-05 11:28S 29°53' E 031°00'0 0.0
2017-May-05 10:58S 29°53' E 031°00'0 0.0
2017-May-05 10:28S 29°53' E 031°00'0 0.0
2017-May-05 09:58S 29°53' E 031°00'0 0.0
2017-May-05 09:22S 29°53' E 031°00'0 0.0
2017-May-05 08:58S 29°53' E 031°00'0 0.0
2017-May-05 08:28S 29°53' E 031°00'0 0.0
2017-May-05 07:58S 29°53' E 031°00'0 0.0
2017-May-05 07:30S 29°53' E 031°00'0 0.0
2017-May-05 07:00S 29°53' E 031°00'0 0.0
2017-May-05 06:30S 29°53' E 031°00'0 0.0
2017-May-05 06:00S 29°53' E 031°00'0 0.0
2017-May-05 05:30S 29°53' E 031°00'0 0.0
2017-May-05 05:00S 29°53' E 031°00'0 0.0
2017-May-05 04:30S 29°53' E 031°00'0 0.0
2017-May-05 03:57S 29°53' E 031°00'0 0.0
2017-May-05 03:30S 29°53' E 031°00'0 0.0
2017-May-05 03:00S 29°53' E 031°00'0 0.0
2017-May-05 02:30S 29°53' E 031°00'0 0.0
2017-May-05 01:58S 29°53' E 031°00'0 0.0
2017-May-05 01:28S 29°53' E 031°00'0 0.0
2017-May-05 00:58S 29°53' E 031°00'0 0.0
2017-May-05 00:28S 29°53' E 031°00'0 0.0
2017-May-04 23:58S 29°53' E 031°00'0 0.0
2017-May-04 23:25S 29°53' E 031°00'0 0.0
2017-May-04 22:58S 29°53' E 031°00'0 0.0
2017-May-04 22:28S 29°53' E 031°00'0 0.0
2017-May-04 21:58S 29°53' E 031°00'0 0.0
2017-May-04 21:28S 29°53' E 031°00'0 0.0
2017-May-04 20:58S 29°53' E 031°00'0 0.0
2017-May-04 20:28S 29°53' E 031°00'0 0.0
2017-May-04 19:58S 29°53' E 031°00'0 0.0
2017-May-04 19:28S 29°53' E 031°00'0 0.0
2017-May-04 18:58S 29°53' E 031°00'0 0.0
2017-May-04 18:28S 29°53' E 031°00'0 0.0
2017-May-04 17:58S 29°53' E 031°00'0 0.0
2017-May-04 17:28S 29°53' E 031°00'0 0.0
2017-May-04 16:58S 29°53' E 031°00'0 0.0
2017-May-04 16:28S 29°53' E 031°00'0 0.0
2017-May-04 15:58S 29°53' E 031°00'0 0.0
2017-May-04 15:28S 29°53' E 031°00'0 0.0
2017-May-04 14:58S 29°53' E 031°00'0 0.0
2017-May-04 13:55S 29°53' E 031°00'0 0.0
2017-May-04 13:28S 29°53' E 031°00'0 0.0
2017-May-04 12:55S 29°53' E 031°00'0 0.0
2017-May-04 12:25S 29°53' E 031°00'0 0.0
2017-May-04 11:56S 29°53' E 031°00'2 4.2
2017-May-04 11:30S 29°53' E 031°02'0 0.5
2017-May-04 10:57S 29°52' E 031°03'0 0.0
2017-May-04 10:27S 29°52' E 031°03'0 0.0
2017-May-04 09:57S 29°52' E 031°03'0 0.0
2017-May-04 09:30S 29°52' E 031°03'0 0.0
2017-May-04 08:57S 29°52' E 031°03'0 0.0
2017-May-04 08:30S 29°52' E 031°03'0 0.0
2017-May-04 08:00S 29°52' E 031°03'0 0.0
2017-May-04 07:27S 29°52' E 031°03'0 0.0
2017-May-04 07:00S 29°52' E 031°03'0 0.0
2017-May-04 06:27S 29°52' E 031°03'0 0.0
2017-May-04 05:57S 29°52' E 031°03'0 0.0
2017-May-04 05:24S 29°52' E 031°03'0 0.0
2017-May-04 05:00S 29°52' E 031°03'0 0.0
2017-May-04 04:30S 29°52' E 031°03'0 0.0
2017-May-04 04:00S 29°52' E 031°03'0 0.0
2017-May-04 03:27S 29°52' E 031°03'0 0.0
2017-May-04 03:00S 29°52' E 031°03'0 0.0
2017-May-04 02:30S 29°52' E 031°03'0 0.0
2017-May-04 02:00S 29°52' E 031°03'0 0.0
2017-May-04 01:30S 29°52' E 031°03'0 0.0
2017-May-04 00:57S 29°52' E 031°03'0 0.0
2017-May-04 00:30S 29°52' E 031°03'0 0.0
2017-May-04 00:00S 29°52' E 031°03'0 0.0
2017-May-03 23:30S 29°52' E 031°03'0 0.0
2017-May-03 23:00S 29°52' E 031°03'0 0.0
2017-May-03 22:30S 29°52' E 031°03'0 0.0
2017-May-03 22:00S 29°52' E 031°03'0 0.0
2017-May-03 21:30S 29°52' E 031°03'0 0.0
2017-May-03 21:00S 29°52' E 031°03'0 0.0
2017-May-03 20:30S 29°52' E 031°03'0 0.0
2017-May-03 20:00S 29°52' E 031°03'0 0.0
2017-May-03 19:30S 29°52' E 031°03'0 0.0
2017-May-03 19:00S 29°52' E 031°03'0 0.0
2017-May-03 18:30S 29°52' E 031°03'0 0.0
2017-May-03 18:00S 29°52' E 031°03'0 0.0
2017-May-03 17:30S 29°52' E 031°03'0 0.0
2017-May-03 17:00S 29°52' E 031°03'0 0.0
2017-May-03 16:30S 29°52' E 031°03'0 0.0
2017-May-03 16:00S 29°52' E 031°03'0 0.0
2017-May-03 15:30S 29°52' E 031°03'0 0.0
2017-May-03 14:57S 29°52' E 031°03'0 0.0
2017-May-03 13:57S 29°52' E 031°03'0 0.0
2017-May-03 13:27S 29°52' E 031°03'0 0.0
2017-May-03 12:51S 29°52' E 031°03'0 0.0
2017-May-03 12:27S 29°52' E 031°03'0 0.0
2017-May-03 12:00S 29°52' E 031°03'0 0.0
2017-May-03 11:27S 29°52' E 031°03'0 0.0
2017-May-03 11:00S 29°52' E 031°03'0 0.0
2017-May-03 10:30S 29°52' E 031°03'0 0.0
2017-May-03 10:00S 29°52' E 031°03'0 0.0
2017-May-03 09:30S 29°52' E 031°03'0 0.0
2017-May-03 09:00S 29°52' E 031°03'1 1.6
2017-May-03 08:30S 29°52' E 031°04'3 6.3
2017-May-03 08:00S 29°50' E 031°06'2 5.0
2017-May-03 07:30S 29°50' E 031°09'3 6.5
2017-May-03 07:00S 29°51' E 031°13'1 2.6
2017-May-03 06:30S 29°49' E 031°12'2 3.3
2017-May-03 06:00S 29°48' E 031°11'4 8.8
2017-May-03 05:30S 29°44' E 031°14'612.7
2017-May-03 05:00S 29°40' E 031°20'612.7
2017-May-03 04:30S 29°36' E 031°25'612.9
2017-May-03 04:00S 29°32' E 031°31'612.7
2017-May-03 03:30S 29°28' E 031°37'612.8
2017-May-03 03:00S 29°24' E 031°42'713.1
2017-May-03 02:30S 29°20' E 031°48'713.1
2017-May-03 02:00S 29°16' E 031°54'714.4
2017-May-03 01:30S 29°11' E 032°01'814.9
2017-May-03 00:56S 29°06' E 032°08'715.2
2017-May-03 00:30S 29°02' E 032°14'815.3
2017-May-03 00:00S 28°57' E 032°21'815.0
2017-May-02 23:27S 28°51' E 032°27'  
2017-Apr-30 05:52S 28°59' E 032°19'3 8.6
2017-Apr-30 05:31S 29°01' E 032°16'5 8.6
2017-Apr-30 04:58S 29°04' E 032°12'4 8.4
2017-Apr-30 04:28S 29°06' E 032°08'7 9.6
2017-Apr-30 03:44S 29°11' E 032°02'312.0
2017-Apr-30 03:28S 29°13' E 031°59'612.5
2017-Apr-30 03:00S 29°16' E 031°53'612.6
2017-Apr-30 02:31S 29°20' E 031°48'612.3
2017-Apr-30 02:00S 29°24' E 031°42'612.3
2017-Apr-30 01:31S 29°28' E 031°37'612.1
2017-Apr-30 01:00S 29°32' E 031°31'611.8
2017-Apr-30 00:30S 29°35' E 031°26'611.8
2017-Apr-30 00:00S 29°39' E 031°21'612.0
2017-Apr-29 23:30S 29°43' E 031°16'612.1
2017-Apr-29 23:00S 29°47' E 031°11'611.3
2017-Apr-29 22:30S 29°50' E 031°05'3 6.0
2017-Apr-29 22:00S 29°52' E 031°03'0 0.0
2017-Apr-29 21:29S 29°52' E 031°03'0 0.0
2017-Apr-29 20:59S 29°52' E 031°03'0 0.0
2017-Apr-29 20:29S 29°52' E 031°03'0 0.0
2017-Apr-29 20:00S 29°52' E 031°03'0 0.0
2017-Apr-29 19:29S 29°52' E 031°03'0 0.0
2017-Apr-29 18:59S 29°52' E 031°03'0 0.0
2017-Apr-29 18:29S 29°52' E 031°03'0 0.0
2017-Apr-29 17:59S 29°52' E 031°03'0 0.0
2017-Apr-29 17:29S 29°52' E 031°03'0 0.0
2017-Apr-29 16:59S 29°52' E 031°03'0 0.0
2017-Apr-29 16:29S 29°52' E 031°03'0 0.0
2017-Apr-29 15:59S 29°52' E 031°03'0 0.0
2017-Apr-29 15:29S 29°52' E 031°03'0 0.0
2017-Apr-29 14:59S 29°52' E 031°03'0 0.0
2017-Apr-29 13:56S 29°52' E 031°03'0 0.0
2017-Apr-29 13:26S 29°52' E 031°03'0 0.0
2017-Apr-29 12:56S 29°52' E 031°03'0 0.0
2017-Apr-29 12:29S 29°52' E 031°03'0 0.0
2017-Apr-29 11:56S 29°52' E 031°03'0 0.0
2017-Apr-29 11:26S 29°52' E 031°03'0 0.0
2017-Apr-29 10:56S 29°52' E 031°03'0 0.0
2017-Apr-29 10:29S 29°52' E 031°03'0 0.0
2017-Apr-29 09:57S 29°52' E 031°03'0 0.0
2017-Apr-29 09:29S 29°52' E 031°03'0 0.0
2017-Apr-29 08:59S 29°52' E 031°03'0 0.2
2017-Apr-29 08:29S 29°52' E 031°03'0 0.0
2017-Apr-29 07:53S 29°52' E 031°03'0 0.0
2017-Apr-29 07:29S 29°52' E 031°03'0 0.0
2017-Apr-29 06:59S 29°52' E 031°03'0 0.0
2017-Apr-29 06:29S 29°52' E 031°03'0 0.0
2017-Apr-29 05:59S 29°52' E 031°03'0 0.0
2017-Apr-29 05:26S 29°52' E 031°03'0 0.0
2017-Apr-29 04:59S 29°52' E 031°03'0 0.0
2017-Apr-29 04:29S 29°52' E 031°03'0 0.0
2017-Apr-29 03:59S 29°52' E 031°03'0 0.0
2017-Apr-29 03:29S 29°52' E 031°03'0 0.0
2017-Apr-29 02:59S 29°52' E 031°03'0 0.0
2017-Apr-29 02:29S 29°52' E 031°03'0 0.0
2017-Apr-29 01:59S 29°52' E 031°03'0 0.0
2017-Apr-29 01:29S 29°52' E 031°03'0 0.0
2017-Apr-29 00:59S 29°52' E 031°03'0 0.0
2017-Apr-29 00:29S 29°52' E 031°03'0 0.0
2017-Apr-28 23:59S 29°52' E 031°03'0 0.0
2017-Apr-28 23:29S 29°52' E 031°03'0 0.0
2017-Apr-28 22:59S 29°52' E 031°03'0 0.0
2017-Apr-28 22:29S 29°52' E 031°03'0 0.0
2017-Apr-28 21:59S 29°52' E 031°03'0 0.0
2017-Apr-28 21:29S 29°52' E 031°03'0 0.0
2017-Apr-28 20:59S 29°52' E 031°03'0 0.0
2017-Apr-28 20:29S 29°52' E 031°03'0 0.0
2017-Apr-28 19:59S 29°52' E 031°03'0 0.0
2017-Apr-28 19:29S 29°52' E 031°03'0 0.0
2017-Apr-28 18:59S 29°52' E 031°03'0 0.0
2017-Apr-28 18:29S 29°52' E 031°03'0 0.0
2017-Apr-28 17:59S 29°52' E 031°03'0 0.0
2017-Apr-28 17:29S 29°52' E 031°03'0 0.0
2017-Apr-28 16:59S 29°52' E 031°03'0 0.0
2017-Apr-28 16:29S 29°52' E 031°03'0 0.0
2017-Apr-28 15:59S 29°52' E 031°03'0 0.0
2017-Apr-28 15:29S 29°52' E 031°03'0 0.0
2017-Apr-28 14:56S 29°52' E 031°03'0 0.0
2017-Apr-28 13:59S 29°52' E 031°03'0 0.0
2017-Apr-28 13:29S 29°52' E 031°03'0 0.0
2017-Apr-28 12:59S 29°52' E 031°03'0 0.0
2017-Apr-28 12:29S 29°52' E 031°03'0 0.0
2017-Apr-28 11:59S 29°52' E 031°03'0 0.0
2017-Apr-28 11:29S 29°52' E 031°03'0 0.0
2017-Apr-28 11:00S 29°52' E 031°03'0 0.0
2017-Apr-28 10:30S 29°52' E 031°03'0 0.0
2017-Apr-28 10:00S 29°52' E 031°03'0 0.0
2017-Apr-28 09:30S 29°52' E 031°03'0 0.0
2017-Apr-28 09:00S 29°52' E 031°03'0 0.0
2017-Apr-28 08:29S 29°52' E 031°03'0 0.0
2017-Apr-28 08:00S 29°52' E 031°03'0 0.0
2017-Apr-28 07:27S 29°52' E 031°03'0 0.0
2017-Apr-28 06:59S 29°52' E 031°03'0 0.0
2017-Apr-28 06:30S 29°52' E 031°03'0 0.0
2017-Apr-28 06:00S 29°52' E 031°03'0 0.0
2017-Apr-28 05:24S 29°52' E 031°03'0 0.0
2017-Apr-28 05:00S 29°52' E 031°03'0 0.0
2017-Apr-28 04:29S 29°52' E 031°03'0 0.0
2017-Apr-28 04:00S 29°52' E 031°03'0 0.0
2017-Apr-28 03:29S 29°52' E 031°03'0 0.0
2017-Apr-28 03:00S 29°52' E 031°03'0 0.0
2017-Apr-28 02:30S 29°52' E 031°03'0 0.0
2017-Apr-28 02:00S 29°52' E 031°03'0 0.0
2017-Apr-28 01:30S 29°52' E 031°03'0 0.0
2017-Apr-28 01:00S 29°52' E 031°03'0 0.0
2017-Apr-28 00:30S 29°52' E 031°03'0 0.0
2017-Apr-28 00:00S 29°52' E 031°03'0 0.0
2017-Apr-27 23:30S 29°52' E 031°03'0 0.0
2017-Apr-27 23:00S 29°52' E 031°03'0 0.0
2017-Apr-27 22:29S 29°52' E 031°03'0 0.0
2017-Apr-27 22:00S 29°52' E 031°03'0 0.0
2017-Apr-27 21:30S 29°52' E 031°03'0 0.0
2017-Apr-27 20:59S 29°52' E 031°03'0 0.0
2017-Apr-27 20:29S 29°52' E 031°03'0 0.0
2017-Apr-27 20:00S 29°52' E 031°03'0 0.0
2017-Apr-27 19:29S 29°52' E 031°03'0 0.0
2017-Apr-27 19:00S 29°52' E 031°03'0 0.0
2017-Apr-27 18:30S 29°52' E 031°03'0 0.0
2017-Apr-27 17:59S 29°52' E 031°03'0 0.0
2017-Apr-27 17:30S 29°52' E 031°03'0 0.0
2017-Apr-27 16:59S 29°52' E 031°03'0 0.0
2017-Apr-27 16:30S 29°52' E 031°03'0 0.0
2017-Apr-27 16:00S 29°52' E 031°03'0 0.0
2017-Apr-27 15:30S 29°52' E 031°03'0 0.0
2017-Apr-27 15:00S 29°52' E 031°03'0 0.0
2017-Apr-27 13:59S 29°52' E 031°03'0 0.0
2017-Apr-27 13:30S 29°52' E 031°03'  

Dump ship's entire track history